createdAt,value
2019-02-09T00:05:15.220Z,95182.00
2019-02-09T00:10:44.621Z,95193.00
2019-02-09T00:16:13.995Z,95179.00
2019-02-09T00:21:43.468Z,95179.00
2019-02-09T00:27:12.946Z,95173.00
2019-02-09T00:32:42.432Z,95162.00
2019-02-09T00:38:12.038Z,95163.00
2019-02-09T00:43:41.396Z,95159.00
2019-02-09T00:49:11.020Z,95147.00
2019-02-09T00:54:40.431Z,95154.00
2019-02-09T01:00:25.161Z,95148.00
2019-02-09T01:05:55.196Z,95145.00
2019-02-09T01:11:24.915Z,95146.00
2019-02-09T01:16:56.197Z,95167.00
2019-02-09T01:22:26.642Z,95161.00
2019-02-09T01:27:58.353Z,95175.00
2019-02-09T01:33:28.943Z,95170.00
2019-02-09T01:39:00.983Z,95161.00
2019-02-09T01:44:30.767Z,95162.00
2019-02-09T01:50:00.208Z,95153.00
2019-02-09T01:55:29.878Z,95147.00
2019-02-09T02:00:59.648Z,95148.00
2019-02-09T02:06:29.376Z,95145.00
2019-02-09T02:11:59.198Z,95143.00
2019-02-09T02:17:29.120Z,95137.00
2019-02-09T02:23:00.735Z,95120.00
2019-02-09T02:28:30.498Z,95122.00
2019-02-09T02:33:59.923Z,95120.00
2019-02-09T02:39:29.600Z,95121.00
2019-02-09T02:44:59.456Z,95116.00
2019-02-09T02:50:29.362Z,95129.00
2019-02-09T02:55:58.909Z,95130.00
2019-02-09T03:01:28.696Z,95120.00
2019-02-09T03:06:58.342Z,95120.00
2019-02-09T03:12:28.131Z,95108.00
2019-02-09T03:17:57.860Z,95121.00
2019-02-09T03:23:27.735Z,95136.00
2019-02-09T03:28:57.571Z,95134.00
2019-02-09T03:34:27.284Z,95131.00
2019-02-09T03:39:57.031Z,95128.00
2019-02-09T03:45:28.984Z,95123.00
2019-02-09T03:50:58.737Z,95104.00
2019-02-09T03:56:29.597Z,95105.00
2019-02-09T04:01:59.300Z,95106.00
2019-02-09T04:07:29.232Z,95107.00
2019-02-09T04:13:00.269Z,95107.00
2019-02-09T04:18:29.837Z,95088.00
2019-02-09T04:23:59.886Z,95073.00
2019-02-09T04:29:29.500Z,95050.00
2019-02-09T04:34:59.000Z,95045.00
2019-02-09T04:40:33.124Z,95046.00
2019-02-09T04:46:03.006Z,95031.00
2019-02-09T04:51:32.460Z,95026.00
2019-02-09T04:57:01.921Z,95018.00
2019-02-09T05:02:31.666Z,95019.00
2019-02-09T05:08:01.146Z,95001.00
2019-02-09T05:13:31.689Z,95008.00
2019-02-09T05:19:01.422Z,95011.00
2019-02-09T05:24:30.827Z,95028.00
2019-02-09T05:30:00.315Z,95026.00
2019-02-09T05:35:30.115Z,95055.00
2019-02-09T05:41:01.116Z,95085.00
2019-02-09T05:46:30.716Z,95112.00
2019-02-09T05:52:00.142Z,95141.00
2019-02-09T05:57:29.994Z,95147.00
2019-02-09T06:02:59.938Z,95169.00
2019-02-09T06:08:29.557Z,95190.00
2019-02-09T06:14:00.356Z,95201.00
2019-02-09T06:19:30.013Z,95213.00
2019-02-09T06:24:59.861Z,95205.00
2019-02-09T06:30:31.687Z,95209.00
2019-02-09T06:36:01.169Z,95209.00
2019-02-09T06:41:30.812Z,95229.00
2019-02-09T06:47:00.386Z,95252.00
2019-02-09T06:52:29.833Z,95264.00
2019-02-09T06:57:59.447Z,95274.00
2019-02-09T07:03:28.977Z,95276.00
2019-02-09T07:08:58.489Z,95288.00
2019-02-09T07:14:28.010Z,95294.00
2019-02-09T07:19:57.547Z,95303.00
2019-02-09T07:25:27.797Z,95325.00
2019-02-09T07:30:57.537Z,95314.00
2019-02-09T07:36:27.500Z,95339.00
2019-02-09T07:41:57.304Z,95340.00
2019-02-09T07:47:27.127Z,95350.00
2019-02-09T07:52:56.964Z,95350.00
2019-02-09T07:58:26.858Z,95360.00
2019-02-09T08:03:56.823Z,95345.00
2019-02-09T08:09:26.573Z,95362.00
2019-02-09T08:14:56.557Z,95366.00
2019-02-09T08:20:30.365Z,95348.00
2019-02-09T08:25:59.933Z,95346.00
2019-02-09T08:31:29.875Z,95350.00
2019-02-09T08:36:59.367Z,95355.00
2019-02-09T08:42:41.181Z,95351.00
2019-02-09T08:48:10.834Z,95364.00
2019-02-09T08:53:40.309Z,95374.00
2019-02-09T08:59:09.638Z,95384.00
2019-02-09T09:04:38.971Z,95363.00
2019-02-09T09:10:12.863Z,95372.00
2019-02-09T09:15:52.792Z,95362.00
2019-02-09T09:21:23.426Z,95378.00
2019-02-09T09:26:57.621Z,95377.00
2019-02-09T09:32:28.728Z,95370.00
2019-02-09T09:38:04.099Z,95368.00
2019-02-09T09:43:35.602Z,95366.00
2019-02-09T09:49:05.286Z,95384.00
2019-02-09T09:54:34.730Z,95374.00
2019-02-09T10:00:07.594Z,95385.00
2019-02-09T10:05:37.256Z,95388.00
2019-02-09T10:11:06.877Z,95392.00
2019-02-09T10:16:37.087Z,95391.00
2019-02-09T10:22:06.915Z,95408.00
2019-02-09T10:27:36.390Z,95383.00
2019-02-09T10:33:05.992Z,95391.00
2019-02-09T10:38:35.819Z,95387.00
2019-02-09T10:44:06.065Z,95389.00
2019-02-09T10:49:35.491Z,95370.00
2019-02-09T10:55:08.479Z,95395.00
2019-02-09T11:00:48.129Z,95419.00
2019-02-09T11:06:17.457Z,95398.00
2019-02-09T11:11:47.067Z,95388.00
2019-02-09T11:17:16.419Z,95391.00
2019-02-09T11:22:46.281Z,95397.00
2019-02-09T11:28:15.782Z,95383.00
2019-02-09T11:33:45.209Z,95380.00
2019-02-09T11:39:14.743Z,95407.00
2019-02-09T11:44:46.731Z,95406.00
2019-02-09T11:50:17.811Z,95386.00
2019-02-09T11:55:48.637Z,95401.00
2019-02-09T12:01:18.011Z,95404.00
2019-02-09T12:06:48.108Z,95400.00
2019-02-09T12:12:18.039Z,95397.00
2019-02-09T12:17:47.377Z,95405.00
2019-02-09T12:23:16.837Z,95395.00
2019-02-09T12:28:46.217Z,95389.00
2019-02-09T12:34:15.531Z,95406.00
2019-02-09T12:39:44.974Z,95398.00
2019-02-09T12:45:20.892Z,95417.00
2019-02-09T12:50:50.740Z,95405.00
2019-02-09T12:56:20.299Z,95413.00
2019-02-09T13:01:50.097Z,95410.00
2019-02-09T13:07:19.570Z,95380.00
2019-02-09T13:12:49.199Z,95414.00
2019-02-09T13:18:19.456Z,95402.00
2019-02-09T13:23:48.819Z,95421.00
2019-02-09T13:29:18.235Z,95417.00
2019-02-09T13:34:47.872Z,95421.00
2019-02-09T13:40:24.331Z,95429.00
2019-02-09T13:45:54.276Z,95427.00
2019-02-09T13:51:24.036Z,95443.00
2019-02-09T13:56:53.940Z,95430.00
2019-02-09T14:02:23.682Z,95434.00
2019-02-09T14:07:53.606Z,95428.00
2019-02-09T14:13:24.462Z,95440.00
2019-02-09T14:18:54.242Z,95434.00
2019-02-09T14:24:26.897Z,95433.00
2019-02-09T14:29:56.616Z,95433.00
2019-02-09T14:35:26.794Z,95440.00
2019-02-09T14:40:57.736Z,95431.00
2019-02-09T14:46:27.429Z,95430.00
2019-02-09T14:51:57.279Z,95430.00
2019-02-09T14:57:27.029Z,95436.00
2019-02-09T15:02:57.044Z,95444.00
2019-02-09T15:08:26.972Z,95429.00
2019-02-09T15:13:56.843Z,95421.00
2019-02-09T15:19:26.919Z,95431.00
2019-02-09T15:24:56.640Z,95433.00
2019-02-09T15:30:31.336Z,95436.00
2019-02-09T15:36:07.934Z,95428.00
2019-02-09T15:41:37.481Z,95441.00
2019-02-09T15:47:07.708Z,95446.00
2019-02-09T15:52:37.232Z,95448.00
2019-02-09T15:58:06.912Z,95449.00
2019-02-09T16:03:36.513Z,95460.00
2019-02-09T16:09:08.369Z,95448.00
2019-02-09T16:14:37.876Z,95468.00
2019-02-09T16:20:12.027Z,95471.00
2019-02-09T16:25:41.432Z,95486.00
2019-02-09T16:31:10.913Z,95469.00
2019-02-09T16:36:40.319Z,95473.00
2019-02-09T16:42:09.894Z,95466.00
2019-02-09T16:47:39.437Z,95468.00
2019-02-09T16:53:09.121Z,95487.00
2019-02-09T16:58:38.492Z,95490.00
2019-02-09T17:04:08.328Z,95496.00
2019-02-09T17:09:37.978Z,95487.00
2019-02-09T17:15:15.334Z,95494.00
2019-02-09T17:20:44.789Z,95489.00
2019-02-09T17:26:15.117Z,95501.00
2019-02-09T17:31:45.289Z,95502.00
2019-02-09T17:37:14.787Z,95496.00
2019-02-09T17:42:44.363Z,95498.00
2019-02-09T17:48:13.840Z,95507.00
2019-02-09T17:53:43.150Z,95510.00
2019-02-09T17:59:12.497Z,95514.00
2019-02-09T18:04:48.411Z,95516.00
2019-02-09T18:10:16.711Z,95512.00
2019-02-09T18:15:46.119Z,95503.00
2019-02-09T18:21:15.627Z,95514.00
2019-02-09T18:26:45.040Z,95507.00
2019-02-09T18:32:14.662Z,95511.00
2019-02-09T18:37:44.211Z,95516.00
2019-02-09T18:43:13.692Z,95521.00
2019-02-09T18:48:43.384Z,95513.00
2019-02-09T18:54:12.975Z,95514.00
2019-02-09T18:59:42.301Z,95522.00
2019-02-09T19:05:14.116Z,95514.00
2019-02-09T19:10:43.556Z,95516.00
2019-02-09T19:16:13.976Z,95511.00
2019-02-09T19:21:44.015Z,95501.00
2019-02-09T19:27:13.486Z,95491.00
2019-02-09T19:32:51.528Z,95498.00
2019-02-09T19:38:21.242Z,95492.00
2019-02-09T19:43:51.373Z,95496.00
2019-02-09T19:49:22.020Z,95492.00
2019-02-09T19:54:51.768Z,95489.00
2019-02-09T20:00:27.888Z,95497.00
2019-02-09T20:05:57.437Z,95487.00
2019-02-09T20:11:27.354Z,95487.00
2019-02-09T20:16:56.760Z,95495.00
2019-02-09T20:22:26.381Z,95477.00
2019-02-09T20:27:57.139Z,95481.00
2019-02-09T20:33:26.622Z,95485.00
2019-02-09T20:39:04.318Z,95486.00
2019-02-09T20:44:28.066Z,95495.00
2019-02-09T20:50:00.186Z,95505.00
2019-02-09T20:55:30.098Z,95498.00
2019-02-09T21:00:59.855Z,95506.00
2019-02-09T21:06:29.546Z,95508.00
2019-02-09T21:11:59.064Z,95510.00
2019-02-09T21:17:28.568Z,95496.00
2019-02-09T21:22:58.098Z,95499.00
2019-02-09T21:28:27.636Z,95505.00
2019-02-09T21:33:57.833Z,95504.00
2019-02-09T21:39:33.802Z,95499.00
2019-02-09T21:44:58.699Z,95514.00
2019-02-09T21:50:40.580Z,95515.00
2019-02-09T21:56:12.653Z,95507.00
2019-02-09T22:01:42.224Z,95509.00
2019-02-09T22:07:11.849Z,95513.00
2019-02-09T22:12:43.534Z,95505.00
2019-02-09T22:18:15.738Z,95510.00
2019-02-09T22:23:47.691Z,95505.00
2019-02-09T22:29:19.853Z,95503.00
2019-02-09T22:34:51.600Z,95492.00
2019-02-09T22:40:25.257Z,95482.00
2019-02-09T22:45:55.055Z,95478.00
2019-02-09T22:51:25.898Z,95477.00
2019-02-09T22:56:55.478Z,95475.00
2019-02-09T23:02:24.975Z,95474.00
2019-02-09T23:07:54.366Z,95464.00
2019-02-09T23:13:23.907Z,95480.00
2019-02-09T23:18:53.292Z,95462.00
2019-02-09T23:24:23.586Z,95463.00
2019-02-09T23:29:53.379Z,95476.00
2019-02-09T23:35:23.040Z,95461.00
2019-02-09T23:40:52.465Z,95445.00
2019-02-09T23:46:21.870Z,95437.00
2019-02-09T23:51:51.240Z,95428.00
2019-02-09T23:57:20.556Z,95430.00
